sensor_id;sensor_type;location;lat;lon;timestamp;P1;durP1;ratioP1;P2;durP2;ratioP2
72569;SDS011;60594;50.204;8.844;2023-01-09T00:00:25;4.00;;;2.45;;
72569;SDS011;60594;50.204;8.844;2023-01-09T00:03:13;4.95;;;2.47;;
72569;SDS011;60594;50.204;8.844;2023-01-09T00:05:40;4.28;;;2.22;;
72569;SDS011;60594;50.204;8.844;2023-01-09T00:08:06;5.40;;;2.88;;
72569;SDS011;60594;50.204;8.844;2023-01-09T00:10:32;5.47;;;2.80;;
72569;SDS011;60594;50.204;8.844;2023-01-09T00:12:59;5.93;;;3.20;;
72569;SDS011;60594;50.204;8.844;2023-01-09T00:15:25;5.53;;;2.78;;
72569;SDS011;60594;50.204;8.844;2023-01-09T00:17:52;5.97;;;2.80;;
72569;SDS011;60594;50.204;8.844;2023-01-09T00:20:18;5.43;;;3.03;;
72569;SDS011;60594;50.204;8.844;2023-01-09T00:22:45;5.25;;;2.50;;
72569;SDS011;60594;50.204;8.844;2023-01-09T00:25:11;5.95;;;2.85;;
72569;SDS011;60594;50.204;8.844;2023-01-09T00:27:37;6.13;;;2.72;;
72569;SDS011;60594;50.204;8.844;2023-01-09T00:30:04;5.35;;;2.70;;
72569;SDS011;60594;50.204;8.844;2023-01-09T00:32:31;6.85;;;3.17;;
72569;SDS011;60594;50.204;8.844;2023-01-09T00:34:57;6.25;;;3.10;;
72569;SDS011;60594;50.204;8.844;2023-01-09T00:37:24;6.72;;;2.90;;
72569;SDS011;60594;50.204;8.844;2023-01-09T00:39:50;5.05;;;3.10;;
72569;SDS011;60594;50.204;8.844;2023-01-09T00:42:20;6.85;;;3.88;;
72569;SDS011;60594;50.204;8.844;2023-01-09T00:44:50;6.70;;;2.95;;
72569;SDS011;60594;50.204;8.844;2023-01-09T00:47:24;6.93;;;3.65;;
72569;SDS011;60594;50.204;8.844;2023-01-09T00:52:29;7.38;;;3.25;;
72569;SDS011;60594;50.204;8.844;2023-01-09T00:54:57;8.88;;;3.67;;
72569;SDS011;60594;50.204;8.844;2023-01-09T00:57:24;7.97;;;3.88;;
72569;SDS011;60594;50.204;8.844;2023-01-09T00:59:51;8.95;;;4.20;;
72569;SDS011;60594;50.204;8.844;2023-01-09T01:02:17;7.07;;;4.32;;
72569;SDS011;60594;50.204;8.844;2023-01-09T01:04:44;9.23;;;4.47;;
72569;SDS011;60594;50.204;8.844;2023-01-09T01:07:29;9.05;;;4.70;;
72569;SDS011;60594;50.204;8.844;2023-01-09T01:10:05;8.85;;;4.53;;
72569;SDS011;60594;50.204;8.844;2023-01-09T01:12:36;10.07;;;5.50;;
72569;SDS011;60594;50.204;8.844;2023-01-09T01:15:03;7.93;;;4.28;;
72569;SDS011;60594;50.204;8.844;2023-01-09T01:17:32;12.48;;;5.78;;
72569;SDS011;60594;50.204;8.844;2023-01-09T01:22:26;10.88;;;4.57;;
72569;SDS011;60594;50.204;8.844;2023-01-09T01:24:52;8.70;;;4.45;;
72569;SDS011;60594;50.204;8.844;2023-01-09T01:27:18;9.25;;;4.38;;
72569;SDS011;60594;50.204;8.844;2023-01-09T01:29:44;11.35;;;4.57;;
72569;SDS011;60594;50.204;8.844;2023-01-09T01:32:11;12.23;;;4.68;;
72569;SDS011;60594;50.204;8.844;2023-01-09T01:34:37;8.38;;;4.13;;
72569;SDS011;60594;50.204;8.844;2023-01-09T01:37:04;9.13;;;4.18;;
72569;SDS011;60594;50.204;8.844;2023-01-09T01:39:30;8.70;;;4.57;;
72569;SDS011;60594;50.204;8.844;2023-01-09T01:41:57;7.82;;;3.72;;
72569;SDS011;60594;50.204;8.844;2023-01-09T01:47:28;9.13;;;3.78;;
72569;SDS011;60594;50.204;8.844;2023-01-09T01:49:59;10.73;;;5.57;;
72569;SDS011;60594;50.204;8.844;2023-01-09T01:52:29;10.70;;;4.95;;
72569;SDS011;60594;50.204;8.844;2023-01-09T01:54:58;9.43;;;5.00;;
72569;SDS011;60594;50.204;8.844;2023-01-09T01:57:25;8.25;;;4.50;;
72569;SDS011;60594;50.204;8.844;2023-01-09T01:59:52;8.88;;;5.18;;
72569;SDS011;60594;50.204;8.844;2023-01-09T02:02:24;11.90;;;5.78;;
72569;SDS011;60594;50.204;8.844;2023-01-09T02:04:55;10.57;;;4.72;;
72569;SDS011;60594;50.204;8.844;2023-01-09T02:07:24;7.55;;;3.53;;
72569;SDS011;60594;50.204;8.844;2023-01-09T02:09:50;9.13;;;4.65;;
72569;SDS011;60594;50.204;8.844;2023-01-09T02:12:21;8.93;;;4.40;;
72569;SDS011;60594;50.204;8.844;2023-01-09T02:14:50;7.00;;;3.45;;
72569;SDS011;60594;50.204;8.844;2023-01-09T02:17:30;7.82;;;3.63;;
72569;SDS011;60594;50.204;8.844;2023-01-09T02:34:25;7.45;;;4.07;;
72569;SDS011;60594;50.204;8.844;2023-01-09T02:42:44;6.03;;;3.30;;
72569;SDS011;60594;50.204;8.844;2023-01-09T02:45:13;6.25;;;3.20;;
72569;SDS011;60594;50.204;8.844;2023-01-09T02:47:41;7.95;;;3.85;;
72569;SDS011;60594;50.204;8.844;2023-01-09T02:50:19;6.25;;;3.22;;
72569;SDS011;60594;50.204;8.844;2023-01-09T02:52:55;6.25;;;3.08;;
72569;SDS011;60594;50.204;8.844;2023-01-09T02:55:59;7.50;;;3.08;;
72569;SDS011;60594;50.204;8.844;2023-01-09T03:07:36;5.35;;;2.75;;
72569;SDS011;60594;50.204;8.844;2023-01-09T03:10:02;4.97;;;2.53;;
72569;SDS011;60594;50.204;8.844;2023-01-09T03:12:36;6.43;;;3.08;;
72569;SDS011;60594;50.204;8.844;2023-01-09T03:15:04;4.88;;;2.70;;
72569;SDS011;60594;50.204;8.844;2023-01-09T03:17:35;5.20;;;2.65;;
72569;SDS011;60594;50.204;8.844;2023-01-09T03:20:05;5.30;;;2.58;;
72569;SDS011;60594;50.204;8.844;2023-01-09T03:22:35;6.60;;;3.03;;
72569;SDS011;60594;50.204;8.844;2023-01-09T03:25:05;6.35;;;2.97;;
72569;SDS011;60594;50.204;8.844;2023-01-09T03:27:31;5.35;;;2.72;;
72569;SDS011;60594;50.204;8.844;2023-01-09T03:29:58;5.40;;;2.65;;
72569;SDS011;60594;50.204;8.844;2023-01-09T03:32:24;4.80;;;2.25;;
72569;SDS011;60594;50.204;8.844;2023-01-09T03:34:52;4.40;;;2.10;;
72569;SDS011;60594;50.204;8.844;2023-01-09T03:37:19;3.55;;;1.65;;
72569;SDS011;60594;50.204;8.844;2023-01-09T03:39:45;4.28;;;2.05;;
72569;SDS011;60594;50.204;8.844;2023-01-09T03:42:12;4.65;;;1.85;;
72569;SDS011;60594;50.204;8.844;2023-01-09T03:44:38;3.80;;;1.92;;
72569;SDS011;60594;50.204;8.844;2023-01-09T03:47:04;3.85;;;1.88;;
72569;SDS011;60594;50.204;8.844;2023-01-09T03:49:31;3.58;;;1.70;;
72569;SDS011;60594;50.204;8.844;2023-01-09T03:51:57;3.25;;;1.42;;
72569;SDS011;60594;50.204;8.844;2023-01-09T03:54:23;4.63;;;1.58;;
72569;SDS011;60594;50.204;8.844;2023-01-09T03:56:50;2.83;;;1.13;;
72569;SDS011;60594;50.204;8.844;2023-01-09T03:59:16;2.90;;;1.10;;
72569;SDS011;60594;50.204;8.844;2023-01-09T04:01:43;2.10;;;1.00;;
72569;SDS011;60594;50.204;8.844;2023-01-09T04:04:09;2.67;;;1.15;;
72569;SDS011;60594;50.204;8.844;2023-01-09T04:06:35;1.90;;;0.80;;
72569;SDS011;60594;50.204;8.844;2023-01-09T04:09:02;2.15;;;1.08;;
72569;SDS011;60594;50.204;8.844;2023-01-09T04:11:28;2.25;;;1.05;;
72569;SDS011;60594;50.204;8.844;2023-01-09T04:13:55;2.35;;;1.10;;
72569;SDS011;60594;50.204;8.844;2023-01-09T04:16:21;2.17;;;0.93;;
72569;SDS011;60594;50.204;8.844;2023-01-09T04:18:47;2.17;;;0.80;;
72569;SDS011;60594;50.204;8.844;2023-01-09T04:21:14;12.75;;;1.30;;
72569;SDS011;60594;50.204;8.844;2023-01-09T04:23:40;1.42;;;0.90;;
72569;SDS011;60594;50.204;8.844;2023-01-09T04:26:06;1.85;;;0.93;;
72569;SDS011;60594;50.204;8.844;2023-01-09T04:28:33;2.65;;;1.08;;
72569;SDS011;60594;50.204;8.844;2023-01-09T04:30:59;2.10;;;0.90;;
72569;SDS011;60594;50.204;8.844;2023-01-09T04:33:27;1.67;;;0.70;;
72569;SDS011;60594;50.204;8.844;2023-01-09T04:35:54;1.85;;;0.68;;
72569;SDS011;60594;50.204;8.844;2023-01-09T04:38:20;1.65;;;0.73;;
72569;SDS011;60594;50.204;8.844;2023-01-09T04:40:47;1.85;;;0.90;;
72569;SDS011;60594;50.204;8.844;2023-01-09T04:43:14;2.15;;;0.93;;
72569;SDS011;60594;50.204;8.844;2023-01-09T04:45:41;1.70;;;0.93;;
72569;SDS011;60594;50.204;8.844;2023-01-09T04:48:07;1.70;;;0.80;;
72569;SDS011;60594;50.204;8.844;2023-01-09T04:50:34;1.55;;;0.73;;
72569;SDS011;60594;50.204;8.844;2023-01-09T04:53:00;1.38;;;0.70;;
72569;SDS011;60594;50.204;8.844;2023-01-09T04:55:27;1.25;;;0.63;;
72569;SDS011;60594;50.204;8.844;2023-01-09T04:57:53;1.15;;;0.68;;
72569;SDS011;60594;50.204;8.844;2023-01-09T05:00:20;1.90;;;0.80;;
72569;SDS011;60594;50.204;8.844;2023-01-09T05:02:46;1.10;;;0.63;;
72569;SDS011;60594;50.204;8.844;2023-01-09T05:05:12;1.58;;;0.60;;
72569;SDS011;60594;50.204;8.844;2023-01-09T05:07:39;2.28;;;0.80;;
72569;SDS011;60594;50.204;8.844;2023-01-09T05:10:06;1.05;;;0.73;;
72569;SDS011;60594;50.204;8.844;2023-01-09T05:12:33;1.92;;;0.50;;
72569;SDS011;60594;50.204;8.844;2023-01-09T05:15:04;0.82;;;0.45;;
72569;SDS011;60594;50.204;8.844;2023-01-09T05:17:32;1.23;;;0.55;;
72569;SDS011;60594;50.204;8.844;2023-01-09T05:19:58;1.40;;;0.63;;
72569;SDS011;60594;50.204;8.844;2023-01-09T05:22:26;1.05;;;0.73;;
72569;SDS011;60594;50.204;8.844;2023-01-09T05:24:52;1.20;;;0.82;;
72569;SDS011;60594;50.204;8.844;2023-01-09T05:27:18;1.67;;;1.05;;
72569;SDS011;60594;50.204;8.844;2023-01-09T05:29:45;3.30;;;1.17;;
72569;SDS011;60594;50.204;8.844;2023-01-09T05:32:11;0.70;;;0.40;;
72569;SDS011;60594;50.204;8.844;2023-01-09T05:34:38;1.73;;;0.52;;
72569;SDS011;60594;50.204;8.844;2023-01-09T05:37:04;1.08;;;0.55;;
72569;SDS011;60594;50.204;8.844;2023-01-09T05:39:30;1.30;;;0.60;;
72569;SDS011;60594;50.204;8.844;2023-01-09T05:41:56;1.00;;;0.85;;
72569;SDS011;60594;50.204;8.844;2023-01-09T05:44:23;0.82;;;0.63;;
72569;SDS011;60594;50.204;8.844;2023-01-09T05:46:49;1.85;;;0.75;;
72569;SDS011;60594;50.204;8.844;2023-01-09T05:49:16;3.03;;;0.60;;
72569;SDS011;60594;50.204;8.844;2023-01-09T05:51:42;1.17;;;0.85;;
72569;SDS011;60594;50.204;8.844;2023-01-09T05:54:08;0.73;;;0.40;;
72569;SDS011;60594;50.204;8.844;2023-01-09T05:56:35;1.25;;;0.85;;
72569;SDS011;60594;50.204;8.844;2023-01-09T05:59:01;2.17;;;0.70;;
72569;SDS011;60594;50.204;8.844;2023-01-09T06:01:27;1.52;;;0.60;;
72569;SDS011;60594;50.204;8.844;2023-01-09T06:03:54;2.45;;;0.95;;
72569;SDS011;60594;50.204;8.844;2023-01-09T06:06:20;1.77;;;0.93;;
72569;SDS011;60594;50.204;8.844;2023-01-09T06:08:47;0.98;;;0.50;;
72569;SDS011;60594;50.204;8.844;2023-01-09T06:11:14;1.35;;;0.80;;
72569;SDS011;60594;50.204;8.844;2023-01-09T06:13:40;1.35;;;0.60;;
72569;SDS011;60594;50.204;8.844;2023-01-09T06:16:07;5.07;;;0.88;;
72569;SDS011;60594;50.204;8.844;2023-01-09T06:18:33;0.82;;;0.57;;
72569;SDS011;60594;50.204;8.844;2023-01-09T06:20:59;2.50;;;0.73;;
72569;SDS011;60594;50.204;8.844;2023-01-09T06:23:26;1.02;;;0.43;;
72569;SDS011;60594;50.204;8.844;2023-01-09T06:25:52;1.58;;;0.70;;
72569;SDS011;60594;50.204;8.844;2023-01-09T06:28:19;1.63;;;0.57;;
72569;SDS011;60594;50.204;8.844;2023-01-09T06:30:48;1.20;;;0.55;;
72569;SDS011;60594;50.204;8.844;2023-01-09T06:33:16;2.78;;;0.63;;
72569;SDS011;60594;50.204;8.844;2023-01-09T06:35:43;0.95;;;0.50;;
72569;SDS011;60594;50.204;8.844;2023-01-09T06:38:09;1.42;;;0.95;;
72569;SDS011;60594;50.204;8.844;2023-01-09T06:40:35;1.27;;;0.88;;
72569;SDS011;60594;50.204;8.844;2023-01-09T06:43:02;1.67;;;0.73;;
72569;SDS011;60594;50.204;8.844;2023-01-09T06:45:28;2.17;;;0.65;;
72569;SDS011;60594;50.204;8.844;2023-01-09T06:47:55;0.98;;;0.73;;
72569;SDS011;60594;50.204;8.844;2023-01-09T06:50:21;1.67;;;0.70;;
72569;SDS011;60594;50.204;8.844;2023-01-09T06:52:48;2.58;;;1.33;;
72569;SDS011;60594;50.204;8.844;2023-01-09T06:55:14;1.85;;;0.80;;
72569;SDS011;60594;50.204;8.844;2023-01-09T06:57:42;2.45;;;0.80;;
72569;SDS011;60594;50.204;8.844;2023-01-09T07:00:09;2.13;;;1.00;;
72569;SDS011;60594;50.204;8.844;2023-01-09T07:02:36;1.30;;;0.60;;
72569;SDS011;60594;50.204;8.844;2023-01-09T07:05:02;1.10;;;0.55;;
72569;SDS011;60594;50.204;8.844;2023-01-09T07:07:33;1.75;;;0.70;;
72569;SDS011;60594;50.204;8.844;2023-01-09T07:09:59;2.00;;;0.80;;
72569;SDS011;60594;50.204;8.844;2023-01-09T07:12:26;2.72;;;1.15;;
72569;SDS011;60594;50.204;8.844;2023-01-09T07:14:52;2.40;;;1.15;;
72569;SDS011;60594;50.204;8.844;2023-01-09T07:17:18;1.48;;;0.77;;
72569;SDS011;60594;50.204;8.844;2023-01-09T07:19:45;2.90;;;1.20;;
72569;SDS011;60594;50.204;8.844;2023-01-09T07:22:11;1.92;;;0.82;;
72569;SDS011;60594;50.204;8.844;2023-01-09T07:24:37;2.42;;;1.08;;
72569;SDS011;60594;50.204;8.844;2023-01-09T07:27:04;4.90;;;1.17;;
72569;SDS011;60594;50.204;8.844;2023-01-09T07:29:31;2.58;;;0.73;;
72569;SDS011;60594;50.204;8.844;2023-01-09T07:31:57;4.68;;;1.20;;
72569;SDS011;60594;50.204;8.844;2023-01-09T07:34:23;2.58;;;0.98;;
72569;SDS011;60594;50.204;8.844;2023-01-09T07:36:50;1.98;;;0.73;;
72569;SDS011;60594;50.204;8.844;2023-01-09T07:39:16;2.20;;;1.10;;
72569;SDS011;60594;50.204;8.844;2023-01-09T07:41:43;3.05;;;1.23;;
72569;SDS011;60594;50.204;8.844;2023-01-09T07:44:09;2.72;;;0.85;;
72569;SDS011;60594;50.204;8.844;2023-01-09T07:46:36;4.47;;;1.00;;
72569;SDS011;60594;50.204;8.844;2023-01-09T07:49:02;3.50;;;1.13;;
72569;SDS011;60594;50.204;8.844;2023-01-09T07:51:29;3.50;;;1.25;;
72569;SDS011;60594;50.204;8.844;2023-01-09T07:53:55;2.40;;;0.80;;
72569;SDS011;60594;50.204;8.844;2023-01-09T07:56:22;1.90;;;0.90;;
72569;SDS011;60594;50.204;8.844;2023-01-09T07:58:48;2.95;;;1.00;;
72569;SDS011;60594;50.204;8.844;2023-01-09T08:01:15;5.07;;;1.38;;
72569;SDS011;60594;50.204;8.844;2023-01-09T08:03:41;2.50;;;0.98;;
72569;SDS011;60594;50.204;8.844;2023-01-09T08:06:08;2.15;;;1.15;;
72569;SDS011;60594;50.204;8.844;2023-01-09T08:08:35;4.00;;;1.30;;
72569;SDS011;60594;50.204;8.844;2023-01-09T08:11:01;3.47;;;1.35;;
72569;SDS011;60594;50.204;8.844;2023-01-09T08:13:28;2.35;;;0.80;;
72569;SDS011;60594;50.204;8.844;2023-01-09T08:15:54;1.98;;;1.15;;
72569;SDS011;60594;50.204;8.844;2023-01-09T08:18:21;3.13;;;1.05;;
72569;SDS011;60594;50.204;8.844;2023-01-09T08:20:47;2.60;;;1.05;;
72569;SDS011;60594;50.204;8.844;2023-01-09T08:23:14;2.90;;;0.90;;
72569;SDS011;60594;50.204;8.844;2023-01-09T08:25:40;4.80;;;1.42;;
72569;SDS011;60594;50.204;8.844;2023-01-09T08:28:07;2.47;;;0.75;;
72569;SDS011;60594;50.204;8.844;2023-01-09T08:30:34;1.55;;;0.68;;
72569;SDS011;60594;50.204;8.844;2023-01-09T08:33:01;3.17;;;1.00;;
72569;SDS011;60594;50.204;8.844;2023-01-09T08:35:28;3.15;;;1.02;;
72569;SDS011;60594;50.204;8.844;2023-01-09T08:37:54;2.63;;;0.95;;
72569;SDS011;60594;50.204;8.844;2023-01-09T08:40:20;4.50;;;1.25;;
72569;SDS011;60594;50.204;8.844;2023-01-09T08:42:47;1.50;;;0.63;;
72569;SDS011;60594;50.204;8.844;2023-01-09T08:45:32;3.67;;;0.82;;
72569;SDS011;60594;50.204;8.844;2023-01-09T08:48:18;2.20;;;0.70;;
72569;SDS011;60594;50.204;8.844;2023-01-09T08:50:44;1.35;;;1.00;;
72569;SDS011;60594;50.204;8.844;2023-01-09T08:53:11;1.95;;;0.80;;
72569;SDS011;60594;50.204;8.844;2023-01-09T08:55:38;3.20;;;1.25;;
72569;SDS011;60594;50.204;8.844;2023-01-09T08:58:05;1.52;;;0.90;;
72569;SDS011;60594;50.204;8.844;2023-01-09T09:00:31;4.45;;;0.90;;
72569;SDS011;60594;50.204;8.844;2023-01-09T09:02:58;1.80;;;0.60;;
72569;SDS011;60594;50.204;8.844;2023-01-09T09:05:26;2.53;;;1.13;;
72569;SDS011;60594;50.204;8.844;2023-01-09T09:07:54;2.65;;;1.05;;
72569;SDS011;60594;50.204;8.844;2023-01-09T09:10:22;2.30;;;1.02;;
72569;SDS011;60594;50.204;8.844;2023-01-09T09:12:51;2.08;;;0.82;;
72569;SDS011;60594;50.204;8.844;2023-01-09T09:15:19;1.00;;;0.63;;
72569;SDS011;60594;50.204;8.844;2023-01-09T09:17:50;1.92;;;0.75;;
72569;SDS011;60594;50.204;8.844;2023-01-09T09:20:24;3.15;;;1.23;;
72569;SDS011;60594;50.204;8.844;2023-01-09T09:22:53;1.85;;;0.80;;
72569;SDS011;60594;50.204;8.844;2023-01-09T09:25:19;2.97;;;0.88;;
72569;SDS011;60594;50.204;8.844;2023-01-09T09:27:46;2.90;;;1.00;;
72569;SDS011;60594;50.204;8.844;2023-01-09T09:30:13;2.78;;;0.93;;
72569;SDS011;60594;50.204;8.844;2023-01-09T09:32:41;1.98;;;0.82;;
72569;SDS011;60594;50.204;8.844;2023-01-09T09:35:08;1.70;;;0.60;;
72569;SDS011;60594;50.204;8.844;2023-01-09T09:37:35;3.42;;;0.80;;
72569;SDS011;60594;50.204;8.844;2023-01-09T09:40:02;3.38;;;1.10;;
72569;SDS011;60594;50.204;8.844;2023-01-09T09:42:38;0.75;;;0.47;;
72569;SDS011;60594;50.204;8.844;2023-01-09T09:48:58;1.17;;;0.77;;
72569;SDS011;60594;50.204;8.844;2023-01-09T09:54:13;2.45;;;1.00;;
72569;SDS011;60594;50.204;8.844;2023-01-09T09:56:52;0.80;;;0.43;;
72569;SDS011;60594;50.204;8.844;2023-01-09T09:59:23;1.33;;;0.75;;
72569;SDS011;60594;50.204;8.844;2023-01-09T10:04:36;1.05;;;0.40;;
72569;SDS011;60594;50.204;8.844;2023-01-09T10:07:12;0.98;;;0.63;;
72569;SDS011;60594;50.204;8.844;2023-01-09T10:12:33;1.67;;;0.70;;
72569;SDS011;60594;50.204;8.844;2023-01-09T10:15:26;3.20;;;0.68;;
72569;SDS011;60594;50.204;8.844;2023-01-09T10:20:57;1.50;;;0.50;;
72569;SDS011;60594;50.204;8.844;2023-01-09T10:27:01;3.28;;;1.02;;
72569;SDS011;60594;50.204;8.844;2023-01-09T10:29:47;2.35;;;0.93;;
72569;SDS011;60594;50.204;8.844;2023-01-09T10:38:19;1.67;;;0.52;;
72569;SDS011;60594;50.204;8.844;2023-01-09T10:40:53;1.83;;;0.75;;
72569;SDS011;60594;50.204;8.844;2023-01-09T10:43:27;0.88;;;0.65;;
72569;SDS011;60594;50.204;8.844;2023-01-09T10:46:00;1.85;;;0.60;;
72569;SDS011;60594;50.204;8.844;2023-01-09T10:48:34;3.45;;;1.02;;
72569;SDS011;60594;50.204;8.844;2023-01-09T10:51:04;1.13;;;0.60;;
72569;SDS011;60594;50.204;8.844;2023-01-09T10:53:44;1.30;;;0.60;;
72569;SDS011;60594;50.204;8.844;2023-01-09T10:56:17;5.68;;;1.10;;
72569;SDS011;60594;50.204;8.844;2023-01-09T10:58:51;1.83;;;0.93;;
72569;SDS011;60594;50.204;8.844;2023-01-09T11:01:23;4.25;;;1.70;;
72569;SDS011;60594;50.204;8.844;2023-01-09T11:03:52;2.08;;;1.20;;
72569;SDS011;60594;50.204;8.844;2023-01-09T11:06:22;1.40;;;0.85;;
72569;SDS011;60594;50.204;8.844;2023-01-09T11:08:53;3.17;;;0.93;;
72569;SDS011;60594;50.204;8.844;2023-01-09T11:11:32;1.45;;;0.60;;
72569;SDS011;60594;50.204;8.844;2023-01-09T11:14:05;0.85;;;0.60;;
72569;SDS011;60594;50.204;8.844;2023-01-09T11:16:56;2.10;;;0.77;;
72569;SDS011;60594;50.204;8.844;2023-01-09T11:19:24;1.40;;;0.70;;
72569;SDS011;60594;50.204;8.844;2023-01-09T11:22:05;1.50;;;0.60;;
72569;SDS011;60594;50.204;8.844;2023-01-09T11:24:40;2.25;;;0.90;;
72569;SDS011;60594;50.204;8.844;2023-01-09T11:29:39;2.17;;;0.60;;
72569;SDS011;60594;50.204;8.844;2023-01-09T11:32:15;2.78;;;1.10;;
72569;SDS011;60594;50.204;8.844;2023-01-09T11:34:49;2.45;;;1.08;;
72569;SDS011;60594;50.204;8.844;2023-01-09T11:37:26;1.25;;;0.68;;
72569;SDS011;60594;50.204;8.844;2023-01-09T11:39:54;2.22;;;0.93;;
72569;SDS011;60594;50.204;8.844;2023-01-09T11:42:24;3.72;;;1.15;;
72569;SDS011;60594;50.204;8.844;2023-01-09T11:45:18;2.67;;;0.75;;
72569;SDS011;60594;50.204;8.844;2023-01-09T11:47:59;2.53;;;0.82;;
72569;SDS011;60594;50.204;8.844;2023-01-09T11:50:27;1.27;;;0.75;;
72569;SDS011;60594;50.204;8.844;2023-01-09T11:53:12;2.90;;;1.00;;
72569;SDS011;60594;50.204;8.844;2023-01-09T11:55:40;1.45;;;0.57;;
72569;SDS011;60594;50.204;8.844;2023-01-09T11:58:10;1.73;;;0.93;;
72569;SDS011;60594;50.204;8.844;2023-01-09T12:00:43;1.88;;;0.80;;
72569;SDS011;60594;50.204;8.844;2023-01-09T12:05:52;2.92;;;0.85;;
72569;SDS011;60594;50.204;8.844;2023-01-09T12:17:08;5.30;;;0.98;;
72569;SDS011;60594;50.204;8.844;2023-01-09T12:25:24;3.38;;;1.15;;
72569;SDS011;60594;50.204;8.844;2023-01-09T12:31:31;4.78;;;1.35;;
72569;SDS011;60594;50.204;8.844;2023-01-09T12:36:56;4.25;;;1.30;;
72569;SDS011;60594;50.204;8.844;2023-01-09T12:42:38;2.40;;;0.88;;
72569;SDS011;60594;50.204;8.844;2023-01-09T12:47:54;1.48;;;0.73;;
72569;SDS011;60594;50.204;8.844;2023-01-09T12:50:50;1.40;;;0.50;;
72569;SDS011;60594;50.204;8.844;2023-01-09T12:53:28;4.03;;;1.17;;
72569;SDS011;60594;50.204;8.844;2023-01-09T12:55:59;1.80;;;1.00;;
72569;SDS011;60594;50.204;8.844;2023-01-09T13:01:08;2.28;;;1.05;;
72569;SDS011;60594;50.204;8.844;2023-01-09T13:06:14;3.67;;;1.30;;
72569;SDS011;60594;50.204;8.844;2023-01-09T13:08:51;2.28;;;1.02;;
72569;SDS011;60594;50.204;8.844;2023-01-09T13:11:30;2.20;;;1.00;;
72569;SDS011;60594;50.204;8.844;2023-01-09T13:14:10;2.22;;;0.82;;
72569;SDS011;60594;50.204;8.844;2023-01-09T13:16:43;4.60;;;1.00;;
72569;SDS011;60594;50.204;8.844;2023-01-09T13:19:30;1.27;;;0.90;;
72569;SDS011;60594;50.204;8.844;2023-01-09T13:22:02;2.05;;;0.95;;
72569;SDS011;60594;50.204;8.844;2023-01-09T13:24:36;4.13;;;1.10;;
72569;SDS011;60594;50.204;8.844;2023-01-09T13:27:14;2.22;;;0.90;;
72569;SDS011;60594;50.204;8.844;2023-01-09T13:29:46;2.78;;;0.70;;
72569;SDS011;60594;50.204;8.844;2023-01-09T13:32:22;2.25;;;1.02;;
72569;SDS011;60594;50.204;8.844;2023-01-09T13:34:51;5.03;;;0.95;;
72569;SDS011;60594;50.204;8.844;2023-01-09T13:37:21;2.13;;;1.25;;
72569;SDS011;60594;50.204;8.844;2023-01-09T13:39:53;1.52;;;0.88;;
72569;SDS011;60594;50.204;8.844;2023-01-09T13:42:24;3.92;;;1.02;;
72569;SDS011;60594;50.204;8.844;2023-01-09T13:47:42;1.33;;;0.60;;
72569;SDS011;60594;50.204;8.844;2023-01-09T13:57:41;2.45;;;1.13;;
72569;SDS011;60594;50.204;8.844;2023-01-09T14:05:07;1.60;;;0.90;;
72569;SDS011;60594;50.204;8.844;2023-01-09T14:07:35;2.97;;;0.93;;
72569;SDS011;60594;50.204;8.844;2023-01-09T14:12:39;2.15;;;0.60;;
72569;SDS011;60594;50.204;8.844;2023-01-09T14:17:56;0.60;;;0.43;;
72569;SDS011;60594;50.204;8.844;2023-01-09T14:23:05;2.78;;;1.13;;
72569;SDS011;60594;50.204;8.844;2023-01-09T14:25:32;1.02;;;0.60;;
72569;SDS011;60594;50.204;8.844;2023-01-09T14:30:35;1.55;;;0.60;;
72569;SDS011;60594;50.204;8.844;2023-01-09T14:33:25;1.33;;;0.55;;
72569;SDS011;60594;50.204;8.844;2023-01-09T14:44:52;2.13;;;0.75;;
72569;SDS011;60594;50.204;8.844;2023-01-09T14:50:01;0.93;;;0.45;;
72569;SDS011;60594;50.204;8.844;2023-01-09T14:52:34;1.05;;;0.70;;
72569;SDS011;60594;50.204;8.844;2023-01-09T14:55:06;1.95;;;0.50;;
72569;SDS011;60594;50.204;8.844;2023-01-09T15:00:17;0.77;;;0.43;;
72569;SDS011;60594;50.204;8.844;2023-01-09T15:02:44;2.55;;;0.70;;
72569;SDS011;60594;50.204;8.844;2023-01-09T15:05:13;1.77;;;0.70;;
72569;SDS011;60594;50.204;8.844;2023-01-09T15:07:50;2.92;;;0.95;;
72569;SDS011;60594;50.204;8.844;2023-01-09T15:10:24;1.70;;;0.63;;
72569;SDS011;60594;50.204;8.844;2023-01-09T15:12:54;1.73;;;0.93;;
72569;SDS011;60594;50.204;8.844;2023-01-09T15:15:24;1.42;;;0.93;;
72569;SDS011;60594;50.204;8.844;2023-01-09T15:17:53;2.05;;;0.70;;
72569;SDS011;60594;50.204;8.844;2023-01-09T15:20:23;2.08;;;0.80;;
72569;SDS011;60594;50.204;8.844;2023-01-09T15:22:54;1.27;;;0.63;;
72569;SDS011;60594;50.204;8.844;2023-01-09T15:25:26;0.60;;;0.45;;
72569;SDS011;60594;50.204;8.844;2023-01-09T15:27:55;1.48;;;1.00;;
72569;SDS011;60594;50.204;8.844;2023-01-09T15:30:31;1.73;;;0.47;;
72569;SDS011;60594;50.204;8.844;2023-01-09T15:33:02;0.63;;;0.40;;
72569;SDS011;60594;50.204;8.844;2023-01-09T15:35:33;1.40;;;0.73;;
72569;SDS011;60594;50.204;8.844;2023-01-09T15:38:01;1.33;;;0.90;;
72569;SDS011;60594;50.204;8.844;2023-01-09T15:40:30;2.13;;;0.73;;
72569;SDS011;60594;50.204;8.844;2023-01-09T15:43:00;1.80;;;0.60;;
72569;SDS011;60594;50.204;8.844;2023-01-09T15:45:28;2.30;;;0.88;;
72569;SDS011;60594;50.204;8.844;2023-01-09T15:50:44;1.77;;;0.50;;
72569;SDS011;60594;50.204;8.844;2023-01-09T15:53:14;0.45;;;0.40;;
72569;SDS011;60594;50.204;8.844;2023-01-09T15:55:43;1.85;;;0.57;;
72569;SDS011;60594;50.204;8.844;2023-01-09T16:01:04;1.02;;;0.73;;
72569;SDS011;60594;50.204;8.844;2023-01-09T16:03:38;1.63;;;0.85;;
72569;SDS011;60594;50.204;8.844;2023-01-09T16:06:05;1.63;;;0.70;;
72569;SDS011;60594;50.204;8.844;2023-01-09T16:08:41;3.15;;;0.75;;
72569;SDS011;60594;50.204;8.844;2023-01-09T16:11:20;0.60;;;0.30;;
72569;SDS011;60594;50.204;8.844;2023-01-09T16:13:49;0.77;;;0.40;;
72569;SDS011;60594;50.204;8.844;2023-01-09T16:16:26;1.58;;;0.65;;
72569;SDS011;60594;50.204;8.844;2023-01-09T16:18:57;2.03;;;0.73;;
72569;SDS011;60594;50.204;8.844;2023-01-09T16:21:31;4.68;;;1.02;;
72569;SDS011;60594;50.204;8.844;2023-01-09T16:26:32;0.77;;;0.40;;
72569;SDS011;60594;50.204;8.844;2023-01-09T16:31:59;1.80;;;0.77;;
72569;SDS011;60594;50.204;8.844;2023-01-09T16:36:55;4.25;;;0.95;;
72569;SDS011;60594;50.204;8.844;2023-01-09T16:39:22;0.82;;;0.50;;
72569;SDS011;60594;50.204;8.844;2023-01-09T16:41:51;3.38;;;0.60;;
72569;SDS011;60594;50.204;8.844;2023-01-09T16:44:39;2.55;;;1.02;;
72569;SDS011;60594;50.204;8.844;2023-01-09T16:47:09;1.98;;;0.80;;
72569;SDS011;60594;50.204;8.844;2023-01-09T16:49:37;1.85;;;0.70;;
72569;SDS011;60594;50.204;8.844;2023-01-09T16:52:16;1.52;;;0.60;;
72569;SDS011;60594;50.204;8.844;2023-01-09T16:54:43;3.75;;;1.17;;
72569;SDS011;60594;50.204;8.844;2023-01-09T16:57:14;1.33;;;0.60;;
72569;SDS011;60594;50.204;8.844;2023-01-09T16:59:44;3.35;;;0.90;;
72569;SDS011;60594;50.204;8.844;2023-01-09T17:02:15;2.00;;;1.00;;
72569;SDS011;60594;50.204;8.844;2023-01-09T17:04:44;1.73;;;0.80;;
72569;SDS011;60594;50.204;8.844;2023-01-09T17:07:14;3.65;;;0.77;;
72569;SDS011;60594;50.204;8.844;2023-01-09T17:09:42;2.80;;;1.00;;
72569;SDS011;60594;50.204;8.844;2023-01-09T17:12:16;3.72;;;1.73;;
72569;SDS011;60594;50.204;8.844;2023-01-09T17:14:48;2.90;;;1.00;;
72569;SDS011;60594;50.204;8.844;2023-01-09T17:17:15;3.97;;;1.73;;
72569;SDS011;60594;50.204;8.844;2023-01-09T17:19:44;4.18;;;2.15;;
72569;SDS011;60594;50.204;8.844;2023-01-09T17:22:12;3.63;;;1.15;;
72569;SDS011;60594;50.204;8.844;2023-01-09T17:24:40;3.08;;;1.02;;
72569;SDS011;60594;50.204;8.844;2023-01-09T17:27:32;3.05;;;1.85;;
72569;SDS011;60594;50.204;8.844;2023-01-09T17:30:19;3.08;;;1.10;;
72569;SDS011;60594;50.204;8.844;2023-01-09T17:32:46;4.63;;;1.60;;
72569;SDS011;60594;50.204;8.844;2023-01-09T17:35:14;3.88;;;1.17;;